Time;durP1;ratioP1;P1;durP2;ratioP2;P2;SDS_P1;SDS_P2;PMS_P1;PMS_P2;Temp;Humidity;BMP_temperature;BMP_pressure;BME280_temperature;BME280_humidity;BME280_pressure;Samples;Min_cycle;Max_cycle;Signal;HPM_P1;HPM_P2
2023/06/29 00:00:39;;;;;;;11.30;5.70;;;;;;;19.43;72.71;100132.17;108088;1283;21991;-65
2023/06/29 00:03:05;;;;;;;11.50;4.30;;;;;;;19.52;72.18;100135.06;108001;1289;22020;-63
2023/06/29 00:05:35;;;;;;;9.00;4.00;;;;;;;19.56;71.93;100134.15;107998;1280;21986;-65
2023/06/29 00:08:01;;;;;;;14.60;5.60;;;;;;;19.58;71.76;100136.89;108038;1281;21989;-65
2023/06/29 00:10:28;;;;;;;13.00;4.50;;;;;;;19.58;71.60;100134.88;108032;1288;22001;-62
2023/06/29 00:12:54;;;;;;;15.30;5.00;;;;;;;19.58;71.54;100135.25;108015;1284;21966;-61
2023/06/29 00:15:19;;;;;;;9.40;3.80;;;;;;;19.56;71.33;100133.39;108021;1289;21981;-62
2023/06/29 00:17:47;;;;;;;9.70;4.50;;;;;;;19.53;71.14;100129.64;108066;1284;21990;-64
2023/06/29 00:20:13;;;;;;;10.20;4.60;;;;;;;19.51;71.15;100124.77;108011;1289;21989;-62
2023/06/29 00:22:40;;;;;;;10.40;4.50;;;;;;;19.49;71.29;100118.29;108099;1289;23714;-62
2023/06/29 00:25:09;;;;;;;9.20;4.60;;;;;;;19.46;71.49;100114.73;108076;1289;22042;-62
2023/06/29 00:27:35;;;;;;;10.70;4.10;;;;;;;19.42;71.88;100109.80;108036;1289;21989;-61
2023/06/29 00:30:01;;;;;;;10.00;4.00;;;;;;;19.35;72.73;100105.72;108041;1289;21987;-66
2023/06/29 00:32:26;;;;;;;8.90;4.50;;;;;;;19.29;74.17;100101.77;108089;1289;21975;-65
2023/06/29 00:34:52;;;;;;;6.90;4.10;;;;;;;19.26;73.98;100095.88;108036;1279;22000;-61
2023/06/29 00:37:18;;;;;;;9.20;4.50;;;;;;;19.24;73.95;100097.56;108017;1286;21991;-65
2023/06/29 00:39:43;;;;;;;13.50;5.10;;;;;;;19.22;74.82;100095.70;108035;1288;21999;-63
2023/06/29 00:42:09;;;;;;;11.80;4.50;;;;;;;19.21;75.01;100097.35;108010;1289;21957;-65
2023/06/29 00:44:35;;;;;;;7.40;4.60;;;;;;;19.20;76.08;100097.27;108035;1289;21980;-66
2023/06/29 00:47:00;;;;;;;12.50;5.40;;;;;;;19.16;76.84;100096.92;108086;1278;21991;-65
2023/06/29 00:49:26;;;;;;;7.40;4.70;;;;;;;19.10;78.44;100094.20;108025;1289;21989;-65
2023/06/29 00:51:53;;;;;;;17.90;5.20;;;;;;;19.11;76.95;100091.31;108014;1289;21987;-62
2023/06/29 00:54:22;;;;;;;12.00;6.00;;;;;;;19.13;76.34;100088.16;108026;1280;21991;-61
2023/06/29 00:56:48;;;;;;;9.20;5.10;;;;;;;19.16;76.22;100083.02;108068;1289;21990;-65
2023/06/29 00:59:13;;;;;;;11.00;4.40;;;;;;;19.20;75.76;100083.21;108088;1286;21988;-66
2023/06/29 01:01:40;;;;;;;14.70;5.90;;;;;;;19.25;75.48;100084.00;108066;1289;21998;-62
2023/06/29 01:04:09;;;;;;;9.60;4.70;;;;;;;19.31;75.43;100081.70;108055;1279;23070;-61
2023/06/29 01:06:44;;;;;;;8.90;4.80;;;;;;;19.38;75.31;100077.28;107983;1288;21990;-63
2023/06/29 01:09:10;;;;;;;9.30;4.80;;;;;;;19.44;75.09;100073.19;107993;1283;22217;-62
2023/06/29 01:11:36;;;;;;;11.30;5.00;;;;;;;19.49;75.00;100070.27;107923;1289;21994;-61
2023/06/29 01:14:04;;;;;;;13.80;4.80;;;;;;;19.51;74.74;100067.29;108036;1289;21991;-66
2023/06/29 01:16:32;;;;;;;10.80;5.50;;;;;;;19.53;74.61;100064.69;107983;1289;21992;-65
2023/06/29 01:19:09;;;;;;;9.10;5.40;;;;;;;19.53;74.48;100063.63;108027;1280;21992;-62
2023/06/29 01:21:37;;;;;;;9.20;4.70;;;;;;;19.54;74.70;100067.17;108042;1281;21995;-62
2023/06/29 01:24:03;;;;;;;11.30;5.20;;;;;;;19.51;75.11;100072.63;108085;1287;21989;-61
2023/06/29 01:26:29;;;;;;;12.40;5.30;;;;;;;19.50;75.13;100075.92;108067;1289;21995;-65
2023/06/29 01:28:56;;;;;;;9.70;4.80;;;;;;;19.48;75.36;100079.36;108034;1280;22014;-63
2023/06/29 01:31:27;;;;;;;8.20;4.80;;;;;;;19.46;75.50;100079.45;108109;1289;21998;-66
2023/06/29 01:33:53;;;;;;;8.00;4.80;;;;;;;19.47;75.94;100076.77;108055;1284;21995;-66
2023/06/29 01:36:31;;;;;;;8.50;4.70;;;;;;;19.47;75.91;100077.86;108071;1289;21991;-66
2023/06/29 01:39:06;;;;;;;10.20;5.80;;;;;;;19.48;75.80;100079.21;108051;1277;23728;-66
2023/06/29 01:41:33;;;;;;;11.40;5.10;;;;;;;19.48;76.01;100071.20;108083;1278;21989;-62
2023/06/29 01:44:00;;;;;;;14.00;5.20;;;;;;;19.49;75.95;100069.55;108045;1289;21998;-62
2023/06/29 01:46:26;;;;;;;12.60;5.00;;;;;;;19.48;77.00;100067.65;107995;1287;22462;-61
2023/06/29 01:48:51;;;;;;;10.30;5.30;;;;;;;19.47;76.05;100069.61;108039;1289;22001;-65
2023/06/29 01:51:19;;;;;;;13.10;5.40;;;;;;;19.49;75.99;100066.88;107942;1289;21989;-66
2023/06/29 01:53:45;;;;;;;9.40;5.00;;;;;;;19.50;76.20;100065.79;108080;1289;21994;-66
2023/06/29 01:56:13;;;;;;;11.80;5.40;;;;;;;19.50;76.14;100071.47;108028;1289;21992;-62
2023/06/29 01:58:39;;;;;;;10.30;5.00;;;;;;;19.52;76.01;100074.72;108041;1289;23038;-63
2023/06/29 02:01:05;;;;;;;9.60;5.10;;;;;;;19.55;76.09;100075.44;108070;1289;21991;-65
2023/06/29 02:03:31;;;;;;;8.60;4.50;;;;;;;19.59;75.77;100074.16;108043;1289;22008;-65
2023/06/29 02:05:57;;;;;;;16.20;5.20;;;;;;;19.63;75.80;100075.77;108028;1288;21986;-62
2023/06/29 02:08:26;;;;;;;9.70;5.20;;;;;;;19.65;75.40;100074.91;108005;1288;21959;-61
2023/06/29 02:10:51;;;;;;;7.90;5.00;;;;;;;19.70;75.44;100075.89;108049;1288;22000;-61
2023/06/29 02:13:17;;;;;;;12.30;5.20;;;;;;;19.72;75.33;100077.02;108076;1289;21998;-62
2023/06/29 02:15:43;;;;;;;9.70;5.00;;;;;;;19.72;75.12;100073.81;108026;1280;23064;-64
2023/06/29 02:18:08;;;;;;;11.80;5.50;;;;;;;19.72;75.02;100075.92;108008;1289;21996;-66
2023/06/29 02:20:36;;;;;;;9.50;5.30;;;;;;;19.72;74.93;100075.08;108023;1289;21999;-65
2023/06/29 02:23:02;;;;;;;12.20;4.80;;;;;;;19.70;75.11;100074.61;108050;1280;21987;-61
2023/06/29 02:25:28;;;;;;;10.60;4.80;;;;;;;19.71;74.95;100070.64;107991;1289;22134;-65
2023/06/29 02:27:53;;;;;;;12.00;5.30;;;;;;;19.70;75.07;100063.94;108007;1289;21997;-64
2023/06/29 02:30:19;;;;;;;6.10;4.50;;;;;;;19.68;75.14;100060.51;108027;1288;21995;-62
2023/06/29 02:32:44;;;;;;;9.00;4.90;;;;;;;19.66;75.34;100056.73;108033;1289;21984;-63
2023/06/29 02:35:10;;;;;;;10.00;4.60;;;;;;;19.63;75.76;100053.49;107985;1280;21999;-62
2023/06/29 02:37:36;;;;;;;8.10;4.70;;;;;;;19.59;75.77;100054.77;107956;1289;21992;-62
2023/06/29 02:40:01;;;;;;;7.80;4.90;;;;;;;19.44;77.69;100057.88;107907;1280;22003;-65
2023/06/29 02:42:27;;;;;;;10.50;5.30;;;;;;;19.39;77.76;100057.11;107877;1287;22015;-65
2023/06/29 02:44:53;;;;;;;8.20;4.80;;;;;;;19.39;77.48;100059.61;107803;1289;22050;-65
2023/06/29 02:47:18;;;;;;;11.00;5.60;;;;;;;19.51;78.50;100061.59;107876;1280;22001;-62
2023/06/29 02:49:44;;;;;;;8.30;4.70;;;;;;;19.56;76.92;100060.64;107950;1278;21995;-62
2023/06/29 02:52:09;;;;;;;10.30;5.20;;;;;;;19.56;76.81;100056.38;107956;1289;21994;-62
2023/06/29 02:54:35;;;;;;;10.80;5.20;;;;;;;19.53;77.60;100054.20;108006;1289;21999;-62
2023/06/29 02:57:00;;;;;;;9.80;5.10;;;;;;;19.52;78.04;100060.12;107944;1289;22034;-62
2023/06/29 02:59:26;;;;;;;7.90;5.40;;;;;;;19.50;78.24;100057.96;107969;1283;22061;-62
2023/06/29 03:01:52;;;;;;;8.10;5.30;;;;;;;19.49;78.11;100062.09;107992;1283;22001;-63
2023/06/29 03:04:18;;;;;;;6.90;5.10;;;;;;;19.46;79.06;100065.57;107980;1283;21990;-62
2023/06/29 03:06:44;;;;;;;7.70;5.20;;;;;;;19.46;79.30;100064.39;107962;1280;21994;-66
2023/06/29 03:09:09;;;;;;;9.20;4.90;;;;;;;19.46;78.88;100068.96;107892;1289;23718;-62
2023/06/29 03:11:35;;;;;;;7.20;4.80;;;;;;;19.48;78.70;100071.18;107828;1289;238284;-66
2023/06/29 03:14:01;;;;;;;10.50;5.10;;;;;;;19.52;78.32;100071.19;108033;1280;21999;-66
2023/06/29 03:16:27;;;;;;;11.60;5.20;;;;;;;19.55;78.47;100071.52;108013;1284;21990;-66
2023/06/29 03:18:52;;;;;;;7.60;4.90;;;;;;;19.57;79.13;100070.35;108057;1288;21994;-62
2023/06/29 03:21:19;;;;;;;9.10;5.50;;;;;;;19.59;79.81;100069.71;108003;1283;21995;-63
2023/06/29 03:23:45;;;;;;;12.90;6.30;;;;;;;19.65;79.58;100070.48;108017;1289;22000;-63
2023/06/29 03:26:12;;;;;;;7.80;5.70;;;;;;;19.67;81.74;100069.09;107977;1289;21998;-62
2023/06/29 03:28:38;;;;;;;12.70;5.30;;;;;;;19.71;81.13;100065.69;108014;1288;21992;-62
2023/06/29 03:31:03;;;;;;;7.20;4.90;;;;;;;19.77;80.03;100067.69;107993;1283;21990;-62
2023/06/29 03:33:29;;;;;;;8.40;4.90;;;;;;;19.82;80.08;100067.58;108089;1289;21990;-65
2023/06/29 03:35:55;;;;;;;5.90;5.00;;;;;;;19.83;81.75;100068.59;108079;1278;22000;-65
2023/06/29 03:38:21;;;;;;;9.20;5.00;;;;;;;19.85;79.56;100069.71;108054;1284;21989;-65
2023/06/29 03:40:46;;;;;;;7.60;4.80;;;;;;;19.88;79.17;100071.36;107997;1289;21990;-63
2023/06/29 03:43:12;;;;;;;11.30;4.80;;;;;;;19.92;78.77;100073.46;108011;1288;21998;-65
2023/06/29 03:45:38;;;;;;;6.60;4.60;;;;;;;19.96;79.24;100073.25;108037;1277;21978;-63
2023/06/29 03:48:03;;;;;;;8.20;4.30;;;;;;;19.95;79.01;100076.30;108030;1278;22004;-63
2023/06/29 03:50:29;;;;;;;6.20;4.50;;;;;;;19.87;79.92;100076.18;108061;1278;22032;-65
2023/06/29 03:52:55;;;;;;;6.90;5.10;;;;;;;19.83;79.51;100072.34;108063;1284;22028;-63
2023/06/29 03:55:20;;;;;;;5.80;4.40;;;;;;;19.81;80.41;100069.45;107961;1287;22008;-61
2023/06/29 03:57:49;;;;;;;7.00;4.70;;;;;;;19.84;80.13;100067.27;108066;1283;21989;-64
2023/06/29 04:00:15;;;;;;;8.70;5.30;;;;;;;19.89;79.71;100067.02;108050;1278;21986;-63
2023/06/29 04:02:41;;;;;;;7.60;4.70;;;;;;;19.94;79.60;100062.33;108089;1289;22009;-64
2023/06/29 04:05:07;;;;;;;9.80;4.60;;;;;;;20.00;79.32;100065.89;108085;1283;22026;-64
2023/06/29 04:07:33;;;;;;;7.80;4.80;;;;;;;20.06;79.57;100064.67;108049;1289;21986;-63
2023/06/29 04:10:00;;;;;;;8.50;4.60;;;;;;;20.15;79.25;100070.55;108019;1289;21994;-64
2023/06/29 04:12:26;;;;;;;7.50;4.70;;;;;;;20.27;79.22;100074.13;108092;1277;22037;-63
2023/06/29 04:14:52;;;;;;;7.90;4.90;;;;;;;20.41;79.38;100071.58;108043;1278;21996;-63
2023/06/29 04:17:18;;;;;;;6.10;4.40;;;;;;;20.51;79.43;100070.63;108066;1283;22000;-62
2023/06/29 04:19:44;;;;;;;9.70;5.20;;;;;;;20.59;79.33;100077.65;108059;1278;22002;-65
2023/06/29 04:22:12;;;;;;;6.70;4.50;;;;;;;20.67;79.13;100080.77;108090;1283;21989;-63
2023/06/29 04:24:38;;;;;;;7.10;4.70;;;;;;;20.72;78.63;100080.95;107990;1277;23669;-63
2023/06/29 04:27:04;;;;;;;6.70;3.80;;;;;;;20.76;78.37;100079.84;108033;1287;22014;-63
2023/06/29 04:29:29;;;;;;;7.00;4.60;;;;;;;20.86;78.14;100079.65;108050;1284;21992;-64
2023/06/29 04:31:56;;;;;;;8.00;4.60;;;;;;;20.99;78.39;100080.85;108077;1283;22030;-63
2023/06/29 04:34:22;;;;;;;12.90;5.60;;;;;;;21.11;78.42;100080.85;108031;1287;22011;-63
2023/06/29 04:36:48;;;;;;;7.20;4.60;;;;;;;21.21;78.54;100082.55;108070;1277;22003;-62
2023/06/29 04:39:14;;;;;;;9.80;4.50;;;;;;;21.28;78.29;100083.88;108076;1288;22461;-62
2023/06/29 04:41:41;;;;;;;8.50;4.10;;;;;;;21.33;77.97;100081.08;108041;1289;21994;-63
2023/06/29 04:44:09;;;;;;;6.50;4.10;;;;;;;21.40;77.89;100078.14;108114;1288;21993;-63
2023/06/29 04:46:38;;;;;;;6.60;4.20;;;;;;;21.45;77.40;100075.86;108107;1289;23148;-62
2023/06/29 04:49:07;;;;;;;5.20;3.60;;;;;;;21.46;76.61;100072.42;107967;1289;22001;-62
2023/06/29 04:51:34;;;;;;;7.40;3.60;;;;;;;21.44;76.20;100073.25;107942;1287;22028;-63
2023/06/29 04:54:05;;;;;;;6.50;3.70;;;;;;;21.42;75.83;100070.36;108059;1286;22002;-62
2023/06/29 04:56:31;;;;;;;4.90;3.30;;;;;;;21.40;75.66;100074.05;107986;1289;21996;-62
2023/06/29 04:58:58;;;;;;;4.20;3.10;;;;;;;21.39;75.52;100071.96;107918;1289;21997;-63
2023/06/29 05:01:23;;;;;;;5.20;3.40;;;;;;;21.39;75.19;100078.94;108032;1286;21999;-63
2023/06/29 05:03:49;;;;;;;4.80;3.30;;;;;;;21.41;75.18;100082.39;107922;1289;22029;-63
2023/06/29 05:06:15;;;;;;;5.30;3.20;;;;;;;21.42;74.94;100079.48;107982;1283;22027;-62
2023/06/29 05:08:40;;;;;;;9.30;3.10;;;;;;;21.42;74.89;100078.02;108026;1287;22002;-63
2023/06/29 05:11:06;;;;;;;6.20;3.40;;;;;;;21.43;74.63;100079.95;107967;1283;21990;-63
2023/06/29 05:13:35;;;;;;;8.60;3.70;;;;;;;21.44;74.85;100081.48;107999;1289;22032;-63
2023/06/29 05:16:04;;;;;;;8.70;3.30;;;;;;;21.50;75.39;100085.77;107980;1280;21963;-63
2023/06/29 05:18:30;;;;;;;6.00;3.80;;;;;;;21.58;75.53;100085.45;107993;1289;23405;-61
2023/06/29 05:20:57;;;;;;;4.40;3.10;;;;;;;21.68;75.81;100083.41;108000;1280;21998;-65
2023/06/29 05:23:23;;;;;;;6.40;3.10;;;;;;;21.82;76.28;100082.88;108037;1289;21994;-64
2023/06/29 05:25:49;;;;;;;5.00;3.40;;;;;;;21.95;75.98;100081.31;107977;1283;22000;-64
2023/06/29 05:28:15;;;;;;;5.10;3.40;;;;;;;22.11;76.36;100080.46;107971;1289;21992;-64
2023/06/29 05:30:40;;;;;;;9.80;3.40;;;;;;;22.28;76.35;100078.65;107992;1280;21999;-61
2023/06/29 05:33:06;;;;;;;11.80;7.20;;;;;;;22.44;75.83;100079.43;107969;1280;22000;-63
2023/06/29 05:35:34;;;;;;;16.40;6.90;;;;;;;22.57;75.32;100080.50;107813;1289;22003;-61
2023/06/29 05:38:00;;;;;;;13.10;6.20;;;;;;;22.70;74.85;100085.23;107979;1287;22035;-64
2023/06/29 05:40:26;;;;;;;7.10;5.10;;;;;;;22.77;74.04;100085.45;107965;1283;21961;-62
2023/06/29 05:42:51;;;;;;;14.70;9.40;;;;;;;22.83;73.34;100087.52;107932;1287;21983;-65
2023/06/29 05:45:17;;;;;;;18.40;10.40;;;;;;;22.88;72.82;100089.19;107937;1286;22009;-65
2023/06/29 05:47:43;;;;;;;15.10;7.50;;;;;;;22.93;73.03;100094.02;107988;1277;21996;-60
2023/06/29 05:50:09;;;;;;;11.00;5.70;;;;;;;23.02;73.48;100097.02;107930;1284;21994;-60
2023/06/29 05:52:34;;;;;;;12.50;8.40;;;;;;;23.12;72.83;100092.69;108023;1280;22026;-60
2023/06/29 05:55:01;;;;;;;8.40;5.90;;;;;;;23.20;71.95;100087.34;107926;1280;21999;-62
2023/06/29 05:57:27;;;;;;;6.80;4.60;;;;;;;23.28;72.30;100087.86;108015;1283;22030;-65
2023/06/29 05:59:53;;;;;;;6.50;3.80;;;;;;;23.37;71.13;100089.98;107961;1289;22004;-61
2023/06/29 06:02:18;;;;;;;11.60;3.40;;;;;;;23.43;71.10;100088.95;107993;1283;21999;-65
2023/06/29 06:04:45;;;;;;;6.70;3.60;;;;;;;23.49;70.22;100086.39;107940;1289;21990;-62
2023/06/29 06:07:14;;;;;;;6.40;2.90;;;;;;;23.56;69.67;100086.66;108006;1289;22020;-65
2023/06/29 06:09:41;;;;;;;4.80;2.60;;;;;;;23.63;69.46;100084.88;107987;1283;22047;-65
2023/06/29 06:12:07;;;;;;;6.10;4.00;;;;;;;23.71;69.45;100082.52;107965;1283;22000;-64
2023/06/29 06:14:33;;;;;;;6.60;2.70;;;;;;;23.80;69.45;100082.06;108044;1289;21992;-61
2023/06/29 06:16:59;;;;;;;8.30;3.40;;;;;;;23.90;69.41;100082.56;108015;1283;21996;-66
2023/06/29 06:19:24;;;;;;;6.90;4.80;;;;;;;24.05;68.87;100082.80;108057;1280;22107;-65
2023/06/29 06:21:50;;;;;;;9.00;3.70;;;;;;;24.18;68.48;100078.61;108027;1287;22033;-60
2023/06/29 06:24:19;;;;;;;6.90;3.70;;;;;;;24.31;68.35;100075.16;108080;1289;21999;-60
2023/06/29 06:26:45;;;;;;;4.80;3.00;;;;;;;24.42;67.61;100073.76;107981;1277;22457;-65
2023/06/29 06:29:12;;;;;;;9.70;2.20;;;;;;;24.56;66.35;100070.19;107956;1289;22001;-66
2023/06/29 06:31:39;;;;;;;4.00;2.30;;;;;;;24.67;66.07;100067.05;107946;1289;21988;-61
2023/06/29 06:34:05;;;;;;;4.50;2.20;;;;;;;24.76;64.89;100067.29;107968;1280;21991;-67
2023/06/29 06:36:32;;;;;;;4.20;2.30;;;;;;;24.80;63.39;100067.52;108009;1283;22032;-66
2023/06/29 06:38:58;;;;;;;3.40;2.20;;;;;;;24.82;62.81;100064.73;107938;1289;21996;-67
2023/06/29 06:41:23;;;;;;;7.60;3.00;;;;;;;24.83;61.28;100064.45;108030;1283;22004;-60
2023/06/29 06:43:49;;;;;;;5.50;2.50;;;;;;;24.87;62.75;100062.70;108011;1281;21994;-60
2023/06/29 06:46:14;;;;;;;3.50;1.90;;;;;;;24.92;59.97;100057.45;107995;1280;22000;-66
2023/06/29 06:48:40;;;;;;;4.00;1.90;;;;;;;24.94;58.96;100056.20;107976;1283;22083;-66
2023/06/29 06:51:05;;;;;;;8.50;2.40;;;;;;;25.07;61.53;100056.83;107955;1289;22097;-67
2023/06/29 06:53:31;;;;;;;4.10;2.00;;;;;;;25.29;61.07;100060.17;107936;1289;21992;-67
2023/06/29 06:55:57;;;;;;;6.70;2.70;;;;;;;25.48;61.09;100057.95;107960;1283;21997;-61
2023/06/29 06:58:23;;;;;;;4.40;2.20;;;;;;;25.79;61.61;100053.55;107966;1289;21986;-61
2023/06/29 07:00:50;;;;;;;4.50;1.90;;;;;;;26.13;61.34;100048.42;107971;1289;22032;-60
2023/06/29 07:03:18;;;;;;;5.60;2.40;;;;;;;26.41;58.30;100045.42;107949;1289;22001;-67
2023/06/29 07:05:44;;;;;;;5.80;2.20;;;;;;;26.61;58.30;100044.20;107953;1283;22015;-67
2023/06/29 07:08:09;;;;;;;6.00;2.00;;;;;;;26.84;57.25;100038.34;107964;1280;21987;-60
2023/06/29 07:10:35;;;;;;;6.30;2.30;;;;;;;27.08;56.37;100031.84;107942;1283;21992;-67
2023/06/29 07:13:01;;;;;;;10.30;2.50;;;;;;;27.32;54.50;100030.84;107933;1287;21989;-68
2023/06/29 07:15:26;;;;;;;6.10;1.90;;;;;;;27.59;53.53;100027.19;107933;1280;23060;-62
2023/06/29 07:17:52;;;;;;;6.40;2.30;;;;;;;27.90;52.14;100024.70;108006;1283;22048;-60
2023/06/29 07:20:18;;;;;;;4.70;1.90;;;;;;;28.20;52.49;100019.28;107955;1283;22028;-68
2023/06/29 07:22:43;;;;;;;7.20;1.90;;;;;;;28.45;51.18;100018.06;107983;1289;21995;-60
2023/06/29 07:25:11;;;;;;;3.40;2.10;;;;;;;28.52;49.75;100021.41;107931;1277;22008;-62
2023/06/29 07:27:38;;;;;;;7.30;2.40;;;;;;;28.53;49.05;100021.14;108032;1283;21990;-68
2023/06/29 07:30:05;;;;;;;7.20;1.90;;;;;;;28.60;49.37;100022.51;108066;1283;21989;-68
2023/06/29 07:32:31;;;;;;;5.30;1.60;;;;;;;28.74;48.31;100022.13;108025;1284;21992;-60
2023/06/29 07:34:56;;;;;;;6.60;1.90;;;;;;;28.90;47.07;100017.03;107998;1289;22003;-68
2023/06/29 07:37:23;;;;;;;5.00;1.70;;;;;;;29.04;45.88;100016.36;108038;1280;21990;-68
2023/06/29 07:47:00;;;;;;;6.40;2.20;;;;;;;26.56;54.78;100034.34;107875;1277;550584;-68
2023/06/29 07:49:26;;;;;;;5.80;1.70;;;;;;;29.02;46.57;100022.31;108186;1281;21985;-67
2023/06/29 07:51:51;;;;;;;4.70;2.00;;;;;;;29.34;45.80;100022.94;108093;1280;21990;-68
2023/06/29 07:54:18;;;;;;;4.50;1.80;;;;;;;29.60;45.19;100026.20;108188;1272;21987;-60
2023/06/29 07:56:44;;;;;;;3.60;1.60;;;;;;;29.74;44.98;100024.12;108150;1284;21997;-62
2023/06/29 07:59:09;;;;;;;8.60;2.10;;;;;;;29.50;41.87;100024.11;108021;1278;228018;-65
2023/06/29 08:01:37;;;;;;;5.60;1.90;;;;;;;29.46;43.95;100025.94;108415;1281;22016;-60
2023/06/29 08:04:03;;;;;;;4.40;1.70;;;;;;;29.60;43.94;100025.27;108405;1282;21983;-68
2023/06/29 08:06:31;;;;;;;5.10;1.80;;;;;;;29.73;42.98;100023.09;108433;1276;22017;-61
2023/06/29 08:08:57;;;;;;;3.90;1.80;;;;;;;29.77;41.70;100016.41;108462;1276;23054;-68
2023/06/29 08:11:22;;;;;;;5.60;2.20;;;;;;;29.90;41.70;100013.99;108378;1282;22020;-68
2023/06/29 08:13:48;;;;;;;7.60;2.10;;;;;;;30.14;41.77;100012.93;108335;1282;22020;-60
2023/06/29 08:16:14;;;;;;;3.40;1.60;;;;;;;30.30;41.61;100011.50;108418;1283;21980;-68
2023/06/29 08:18:40;;;;;;;3.20;1.40;;;;;;;30.49;40.23;100013.07;108446;1274;21985;-59
2023/06/29 08:21:06;;;;;;;3.90;1.70;;;;;;;30.49;39.46;100005.81;108382;1282;22037;-69
2023/06/29 08:23:32;;;;;;;5.80;1.70;;;;;;;30.41;39.82;100005.72;108432;1277;21980;-60
2023/06/29 08:25:58;;;;;;;8.90;1.70;;;;;;;30.56;40.10;100010.49;108424;1280;21982;-60
2023/06/29 08:28:24;;;;;;;3.40;1.60;;;;;;;30.78;38.92;100012.25;108395;1282;21983;-69
2023/06/29 08:30:51;;;;;;;9.10;2.00;;;;;;;30.83;38.78;100008.59;108385;1282;21981;-60
2023/06/29 08:33:17;;;;;;;3.00;1.70;;;;;;;30.89;39.16;100008.19;108414;1281;23041;-60
2023/06/29 08:35:43;;;;;;;4.90;1.80;;;;;;;31.03;39.64;100009.98;108412;1282;21993;-60
2023/06/29 08:38:09;;;;;;;3.10;1.40;;;;;;;31.30;40.42;100009.22;108431;1282;21987;-68
2023/06/29 08:40:35;;;;;;;3.40;1.60;;;;;;;31.66;40.25;100006.11;108416;1271;21983;-68
2023/06/29 08:43:01;;;;;;;6.40;1.50;;;;;;;32.01;39.21;100012.59;108393;1271;21988;-69
2023/06/29 08:45:27;;;;;;;5.20;1.90;;;;;;;32.16;38.39;100009.88;108415;1276;21982;-69
2023/06/29 08:47:53;;;;;;;5.50;1.80;;;;;;;32.13;38.32;100010.67;108414;1274;22023;-60
2023/06/29 08:50:21;;;;;;;5.50;1.80;;;;;;;32.07;38.06;100012.84;108388;1282;21988;-70
2023/06/29 08:52:47;;;;;;;2.80;1.50;;;;;;;31.97;37.21;100007.71;108483;1282;22020;-60
2023/06/29 08:55:12;;;;;;;6.70;2.00;;;;;;;31.87;37.53;100008.65;108245;1283;21979;-69
2023/06/29 08:57:39;;;;;;;5.30;1.60;;;;;;;31.66;36.49;100009.77;108174;1277;21981;-61
2023/06/29 09:00:08;;;;;;;4.40;1.60;;;;;;;31.43;36.10;100012.38;108166;1283;21984;-69
2023/06/29 09:02:35;;;;;;;6.20;1.70;;;;;;;31.28;36.45;100006.00;108467;1277;23006;-60
2023/06/29 09:05:02;;;;;;;2.80;1.40;;;;;;;31.26;37.35;99997.67;108448;1282;21981;-62
2023/06/29 09:07:28;;;;;;;5.50;1.80;;;;;;;31.41;36.51;100001.39;108407;1282;21977;-69
2023/06/29 09:09:55;;;;;;;5.50;1.50;;;;;;;31.61;36.60;100001.36;108399;1280;21990;-60
2023/06/29 09:12:20;;;;;;;4.40;1.40;;;;;;;31.82;35.69;100007.82;108380;1271;21983;-70
2023/06/29 09:14:47;;;;;;;4.80;1.40;;;;;;;31.81;35.79;100001.30;108389;1271;21991;-72
2023/06/29 09:17:16;;;;;;;7.00;1.90;;;;;;;31.70;35.52;100005.36;108807;1270;23471;-70
2023/06/29 09:19:55;;;;;;;3.80;1.50;;;;;;;31.70;34.98;100002.47;108412;1282;22009;-70
2023/06/29 09:22:21;;;;;;;5.00;1.80;;;;;;;31.66;35.60;100001.61;108410;1283;21977;-61
2023/06/29 09:24:48;;;;;;;3.90;1.50;;;;;;;31.79;35.12;100001.36;108495;1282;21999;-69
2023/06/29 09:27:15;;;;;;;2.20;1.30;;;;;;;32.10;35.76;99995.83;108436;1271;21983;-61
2023/06/29 09:29:49;;;;;;;5.10;1.80;;;;;;;32.28;34.10;99996.95;108196;1282;21980;-62
2023/06/29 09:32:14;;;;;;;3.60;1.90;;;;;;;32.25;33.15;99994.69;108411;1270;21985;-70
2023/06/29 09:34:47;;;;;;;5.00;1.40;;;;;;;32.12;33.85;99997.60;108463;1278;21995;-60
2023/06/29 09:37:14;;;;;;;4.20;1.40;;;;;;;32.18;34.03;99996.55;108465;1278;21978;-61
2023/06/29 09:39:49;;;;;;;5.00;1.70;;;;;;;32.27;34.27;99993.23;108477;1271;21985;-67
2023/06/29 09:42:15;;;;;;;3.90;1.60;;;;;;;32.26;33.42;99991.17;108424;1282;21993;-61
2023/06/29 09:44:44;;;;;;;4.40;1.50;;;;;;;32.23;33.36;99986.02;108422;1282;21974;-69
2023/06/29 09:47:09;;;;;;;5.40;1.80;;;;;;;32.23;33.58;99979.63;108363;1282;21967;-70
2023/06/29 09:49:47;;;;;;;4.20;1.40;;;;;;;32.16;33.18;99980.80;108377;1281;21990;-69
2023/06/29 09:52:17;;;;;;;5.00;1.50;;;;;;;32.12;33.30;99979.23;108437;1271;21990;-70
2023/06/29 09:54:42;;;;;;;10.50;2.20;;;;;;;32.12;33.76;99981.77;108408;1277;21974;-60
2023/06/29 09:57:12;;;;;;;4.50;1.50;;;;;;;31.97;32.95;99980.92;108426;1282;21995;-71
2023/06/29 09:59:41;;;;;;;8.30;1.50;;;;;;;31.68;33.26;99976.48;108437;1282;23628;-61
2023/06/29 10:02:08;;;;;;;3.30;1.50;;;;;;;31.38;33.17;99980.85;108453;1277;22006;-60
2023/06/29 10:04:35;;;;;;;3.80;1.50;;;;;;;31.06;33.36;99983.27;108445;1282;21987;-61
2023/06/29 10:07:17;;;;;;;4.00;1.50;;;;;;;30.88;33.81;99976.67;108503;1282;21984;-63
2023/06/29 10:09:46;;;;;;;3.20;1.30;;;;;;;30.97;34.14;99973.48;108439;1271;22019;-70
2023/06/29 10:12:12;;;;;;;3.10;1.30;;;;;;;31.16;33.39;99972.30;108488;1271;22042;-61
2023/06/29 10:14:38;;;;;;;6.50;1.40;;;;;;;31.39;33.91;99965.73;108453;1271;22013;-70
2023/06/29 10:17:06;;;;;;;10.20;1.70;;;;;;;31.59;33.63;99963.01;108433;1277;22037;-72
2023/06/29 10:19:32;;;;;;;5.90;1.60;;;;;;;31.80;32.71;99962.19;108474;1276;23728;-61
2023/06/29 10:22:06;;;;;;;5.50;1.30;;;;;;;31.97;32.26;99963.13;108364;1271;21999;-71
2023/06/29 10:24:36;;;;;;;5.80;1.40;;;;;;;32.22;32.22;99956.88;108458;1282;22018;-69
2023/06/29 10:27:01;;;;;;;4.40;1.80;;;;;;;32.40;31.51;99957.91;108484;1282;21981;-59
2023/06/29 10:29:27;;;;;;;2.20;0.90;;;;;;;32.42;32.13;99951.82;108349;1282;21991;-71
2023/06/29 10:31:57;;;;;;;3.70;1.20;;;;;;;32.50;32.67;99956.63;108358;1282;22448;-71
2023/06/29 10:34:26;;;;;;;3.30;1.30;;;;;;;32.37;30.94;99954.88;108461;1282;21982;-62
2023/06/29 10:36:52;;;;;;;2.50;1.20;;;;;;;32.09;31.80;99961.66;108373;1282;21998;-72
2023/06/29 10:39:40;;;;;;;3.40;1.20;;;;;;;31.90;31.81;99961.11;108366;1280;21986;-69
2023/06/29 10:42:38;;;;;;;4.50;1.40;;;;;;;31.74;32.06;99963.73;108295;1282;22208;-69
2023/06/29 10:45:13;;;;;;;4.10;1.30;;;;;;;31.73;32.30;99962.77;108213;1282;21977;-68
2023/06/29 10:47:39;;;;;;;3.80;1.50;;;;;;;31.98;32.04;99955.73;108362;1273;21974;-68
2023/06/29 10:50:08;;;;;;;4.10;1.60;;;;;;;32.24;31.33;99953.47;108264;1281;21980;-60
2023/06/29 10:52:34;;;;;;;2.90;1.30;;;;;;;32.37;31.42;99954.79;108353;1274;21979;-60
2023/06/29 10:55:15;;;;;;;4.30;1.70;;;;;;;32.44;30.83;99955.39;108224;1274;22021;-60
2023/06/29 10:57:55;;;;;;;4.80;1.30;;;;;;;32.31;30.54;99953.77;108355;1281;21984;-68
2023/06/29 11:00:21;;;;;;;5.70;1.40;;;;;;;32.20;31.08;99950.38;108414;1281;22012;-68
2023/06/29 11:02:47;;;;;;;2.60;1.10;;;;;;;32.33;31.06;99947.90;108396;1270;21984;-60
2023/06/29 11:05:16;;;;;;;7.10;1.40;;;;;;;32.37;29.44;99947.33;108394;1271;22220;-70
2023/06/29 11:07:51;;;;;;;8.80;1.50;;;;;;;32.50;30.39;99944.06;108391;1282;23745;-60
2023/06/29 11:10:20;;;;;;;5.80;1.60;;;;;;;32.63;30.14;99942.92;108374;1276;21987;-69
2023/06/29 11:12:46;;;;;;;4.10;1.50;;;;;;;32.67;30.13;99938.15;108357;1282;21981;-61
2023/06/29 11:15:13;;;;;;;3.80;1.30;;;;;;;32.68;30.25;99937.84;108296;1282;22017;-60
2023/06/29 11:17:39;;;;;;;2.20;1.10;;;;;;;32.57;29.66;99942.43;108404;1271;21977;-71
2023/06/29 11:20:10;;;;;;;3.90;1.30;;;;;;;32.36;29.55;99945.45;108455;1282;21989;-61
2023/06/29 11:22:36;;;;;;;3.30;1.30;;;;;;;32.24;29.97;99947.27;108541;1283;22401;-62